createdAt,value
2018-05-14T00:00:43.356Z,86.75
2018-05-14T00:03:10.977Z,86.66
2018-05-14T00:05:38.581Z,86.69
2018-05-14T00:08:06.251Z,86.66
2018-05-14T00:10:33.879Z,86.76
2018-05-14T00:13:01.579Z,86.32
2018-05-14T00:15:29.241Z,86.09
2018-05-14T00:17:56.879Z,85.84
2018-05-14T00:20:24.511Z,85.94
2018-05-14T00:22:52.218Z,86.18
2018-05-14T00:25:19.839Z,85.78
2018-05-14T00:27:47.576Z,85.90
2018-05-14T00:30:15.268Z,86.90
2018-05-14T00:32:42.866Z,87.63
2018-05-14T00:35:10.512Z,88.09
2018-05-14T00:37:38.173Z,87.35
2018-05-14T00:40:05.782Z,87.41
2018-05-14T00:42:33.482Z,87.05
2018-05-14T00:45:01.154Z,87.17
2018-05-14T00:47:28.811Z,86.54
2018-05-14T00:49:56.430Z,86.03
2018-05-14T00:52:24.086Z,87.06
2018-05-14T00:55:03.421Z,87.36
2018-05-14T00:57:31.038Z,88.16
2018-05-14T00:59:58.643Z,88.16
2018-05-14T01:02:26.276Z,88.01
2018-05-14T01:04:53.973Z,87.66
2018-05-14T01:07:21.632Z,87.28
2018-05-14T01:09:50.176Z,86.68
2018-05-14T01:12:17.826Z,86.77
2018-05-14T01:14:45.455Z,86.75
2018-05-14T01:17:13.149Z,87.41
2018-05-14T01:19:40.792Z,86.91
2018-05-14T01:22:08.441Z,87.42
2018-05-14T01:24:36.155Z,87.15
2018-05-14T01:27:03.818Z,87.94
2018-05-14T01:29:31.500Z,87.88
2018-05-14T01:31:59.177Z,87.64
2018-05-14T01:34:26.805Z,87.40
2018-05-14T01:36:54.621Z,87.24
2018-05-14T01:39:22.559Z,87.24
2018-05-14T01:41:50.177Z,87.32
2018-05-14T01:44:17.857Z,87.07
2018-05-14T01:46:45.622Z,86.70
2018-05-14T01:49:13.328Z,86.82
2018-05-14T01:51:41.144Z,86.77
2018-05-14T01:54:08.848Z,87.13
2018-05-14T01:56:36.438Z,87.17
2018-05-14T01:59:04.087Z,87.54
2018-05-14T02:01:31.841Z,87.51
2018-05-14T02:03:59.780Z,88.85
2018-05-14T02:06:27.392Z,88.17
2018-05-14T02:08:55.058Z,87.79
2018-05-14T02:11:22.661Z,88.37
2018-05-14T02:13:50.316Z,87.79
2018-05-14T02:16:18.001Z,87.51
2018-05-14T02:18:45.663Z,87.50
2018-05-14T02:21:13.316Z,87.39
2018-05-14T02:23:40.991Z,87.31
2018-05-14T02:26:08.633Z,87.44
2018-05-14T02:28:36.314Z,88.41
2018-05-14T02:31:04.064Z,88.18
2018-05-14T02:33:31.706Z,88.69
2018-05-14T02:35:59.349Z,89.41
2018-05-14T02:38:27.023Z,88.39
2018-05-14T02:40:54.763Z,88.55
2018-05-14T02:43:22.437Z,88.04
2018-05-14T02:45:50.046Z,88.26
2018-05-14T02:48:17.712Z,89.01
2018-05-14T02:50:45.329Z,88.73
2018-05-14T02:53:12.963Z,89.20
2018-05-14T02:55:40.592Z,88.56
2018-05-14T02:58:08.184Z,88.42
2018-05-14T03:00:35.860Z,87.79
2018-05-14T03:03:03.599Z,87.62
2018-05-14T03:05:31.271Z,88.39
2018-05-14T03:07:58.872Z,88.61
2018-05-14T03:10:26.523Z,88.79
2018-05-14T03:12:55.397Z,88.54
2018-05-14T03:15:23.068Z,89.27
2018-05-14T03:17:50.684Z,89.18
2018-05-14T03:20:18.409Z,89.82
2018-05-14T03:22:46.134Z,89.08
2018-05-14T03:25:13.752Z,88.23
2018-05-14T03:27:41.459Z,88.03
2018-05-14T03:30:09.125Z,88.67
2018-05-14T03:32:36.783Z,88.56
2018-05-14T03:35:04.597Z,88.37
2018-05-14T03:37:32.242Z,88.72
2018-05-14T03:39:59.892Z,88.19
2018-05-14T03:42:27.538Z,88.83
2018-05-14T03:44:55.286Z,89.50
2018-05-14T03:47:22.935Z,88.50
2018-05-14T03:49:50.536Z,88.80
2018-05-14T03:52:18.147Z,89.55
2018-05-14T03:54:45.803Z,89.02
2018-05-14T03:57:13.383Z,87.57
2018-05-14T03:59:52.859Z,88.44
2018-05-14T04:02:44.006Z,87.97
2018-05-14T04:05:19.230Z,88.56
2018-05-14T04:07:46.865Z,88.95
2018-05-14T04:10:14.628Z,87.94
2018-05-14T04:12:42.262Z,88.58
2018-05-14T04:15:09.939Z,88.54
2018-05-14T04:17:37.524Z,89.12
2018-05-14T04:20:05.165Z,89.01
2018-05-14T04:22:32.832Z,89.73
2018-05-14T04:25:00.467Z,90.13
2018-05-14T04:27:28.211Z,89.25
2018-05-14T04:29:55.893Z,88.50
2018-05-14T04:32:23.555Z,87.74
2018-05-14T04:34:51.199Z,87.49
2018-05-14T04:37:18.821Z,87.64
2018-05-14T04:39:46.450Z,87.93
2018-05-14T04:42:14.143Z,89.41
2018-05-14T04:44:41.853Z,90.24
2018-05-14T04:47:09.507Z,89.25
2018-05-14T04:49:37.292Z,88.46
2018-05-14T04:52:04.977Z,87.64
2018-05-14T04:54:33.305Z,87.26
2018-05-14T04:57:00.949Z,87.06
2018-05-14T04:59:28.625Z,87.10
2018-05-14T05:01:56.239Z,85.94
2018-05-14T05:04:23.920Z,85.94
2018-05-14T05:06:51.540Z,85.74
2018-05-14T05:09:19.179Z,85.26
2018-05-14T05:11:46.824Z,84.51
2018-05-14T05:14:14.497Z,84.06
2018-05-14T05:16:42.097Z,83.91
2018-05-14T05:19:09.699Z,84.26
2018-05-14T05:21:37.434Z,82.42
2018-05-14T05:24:05.030Z,83.44
2018-05-14T05:26:32.704Z,84.95
2018-05-14T05:29:00.733Z,85.81
2018-05-14T05:31:28.389Z,85.97
2018-05-14T05:33:56.175Z,85.63
2018-05-14T05:36:23.860Z,85.43
2018-05-14T05:38:51.647Z,84.23
2018-05-14T05:41:19.275Z,85.94
2018-05-14T05:43:46.955Z,84.57
2018-05-14T05:46:14.632Z,85.48
2018-05-14T05:48:42.251Z,83.80
2018-05-14T05:51:09.905Z,83.90
2018-05-14T05:53:37.604Z,83.50
2018-05-14T05:56:05.938Z,83.16
2018-05-14T05:58:33.585Z,81.96
2018-05-14T06:01:01.249Z,81.81
2018-05-14T06:03:29.158Z,81.72
2018-05-14T06:05:56.774Z,81.78
2018-05-14T06:08:24.401Z,80.94
2018-05-14T06:10:52.024Z,82.14
2018-05-14T06:13:19.689Z,82.21
2018-05-14T06:15:47.343Z,78.10
2018-05-14T06:18:15.022Z,78.85
2018-05-14T06:20:42.720Z,78.66
2018-05-14T06:23:10.371Z,78.11
2018-05-14T06:25:37.978Z,77.59
2018-05-14T06:28:05.621Z,77.28
2018-05-14T06:30:34.479Z,77.55
2018-05-14T06:33:02.843Z,76.54
2018-05-14T06:35:30.592Z,73.83
2018-05-14T06:37:58.260Z,74.53
2018-05-14T06:40:25.871Z,73.88
2018-05-14T06:42:53.522Z,72.32
2018-05-14T06:45:21.183Z,70.37
2018-05-14T06:47:48.806Z,68.29
2018-05-14T06:50:16.482Z,65.20
2018-05-14T06:52:44.199Z,65.64
2018-05-14T06:55:11.912Z,65.62
2018-05-14T06:57:39.560Z,63.61
2018-05-14T07:00:07.239Z,63.64
2018-05-14T07:02:34.874Z,63.79
2018-05-14T07:05:02.495Z,61.99
2018-05-14T07:07:30.159Z,57.53
2018-05-14T07:09:57.746Z,58.87
2018-05-14T07:12:25.412Z,59.31
2018-05-14T07:14:53.067Z,58.62
2018-05-14T07:17:20.693Z,59.53
2018-05-14T07:19:48.344Z,57.53
2018-05-14T07:22:15.999Z,53.90
2018-05-14T07:24:43.704Z,56.63
2018-05-14T07:27:11.337Z,58.26
2018-05-14T07:29:38.955Z,56.37
2018-05-14T07:32:06.624Z,56.24
2018-05-14T07:34:34.288Z,59.30
2018-05-14T07:37:01.933Z,59.58
2018-05-14T07:39:29.602Z,58.26
2018-05-14T07:41:57.225Z,57.55
2018-05-14T07:44:24.839Z,57.80
2018-05-14T07:46:52.523Z,56.93
2018-05-14T07:49:20.198Z,58.81
2018-05-14T07:51:47.894Z,61.45
2018-05-14T07:54:15.492Z,61.03
2018-05-14T07:56:43.149Z,58.23
2018-05-14T07:59:10.760Z,59.93
2018-05-14T08:01:38.429Z,57.26
2018-05-14T08:04:06.586Z,59.03
2018-05-14T08:06:34.290Z,57.00
2018-05-14T08:09:01.931Z,48.30
2018-05-14T08:11:29.927Z,49.36
2018-05-14T08:13:57.631Z,50.04
2018-05-14T08:16:25.269Z,48.95
2018-05-14T08:18:53.137Z,50.27
2018-05-14T08:21:20.988Z,51.94
2018-05-14T08:23:48.871Z,48.60
2018-05-14T08:26:17.251Z,49.70
2018-05-14T08:28:45.171Z,47.35
2018-05-14T08:31:13.133Z,48.31
2018-05-14T08:33:40.835Z,51.01
2018-05-14T08:36:08.828Z,49.83
2018-05-14T08:38:37.292Z,50.18
2018-05-14T08:41:05.213Z,50.33
2018-05-14T08:43:33.550Z,49.08
2018-05-14T08:46:01.302Z,48.43
2018-05-14T08:48:30.529Z,44.33
2018-05-14T08:50:58.381Z,49.37
2018-05-14T08:53:26.339Z,46.17
2018-05-14T08:55:54.168Z,50.13
2018-05-14T08:58:21.979Z,50.62
2018-05-14T09:00:49.873Z,49.81
2018-05-14T09:03:17.798Z,51.16
2018-05-14T09:05:45.635Z,52.31
2018-05-14T09:08:13.286Z,53.89
2018-05-14T09:10:40.912Z,49.64
2018-05-14T09:13:09.351Z,44.51
2018-05-14T09:15:37.140Z,46.77
2018-05-14T09:18:05.122Z,45.24
2018-05-14T09:20:32.877Z,47.90
2018-05-14T09:23:00.525Z,47.14
2018-05-14T09:25:28.835Z,46.98
2018-05-14T09:27:56.786Z,44.83
2018-05-14T09:30:24.482Z,44.55
2018-05-14T09:32:53.660Z,44.35
2018-05-14T09:35:22.594Z,42.64
2018-05-14T09:37:53.032Z,41.17
2018-05-14T09:40:21.520Z,41.95
2018-05-14T09:42:49.122Z,41.38
2018-05-14T09:45:16.774Z,42.46
2018-05-14T09:47:44.439Z,39.56
2018-05-14T09:50:12.094Z,42.09
2018-05-14T09:52:39.772Z,44.07
2018-05-14T09:55:08.415Z,43.35
2018-05-14T09:57:36.545Z,44.06
2018-05-14T10:00:05.275Z,42.85
2018-05-14T10:02:33.055Z,45.48
2018-05-14T10:05:00.674Z,44.32
2018-05-14T10:07:28.995Z,43.10
2018-05-14T10:09:56.585Z,44.11
2018-05-14T10:12:24.334Z,45.60
2018-05-14T10:14:51.948Z,42.88
2018-05-14T10:17:19.617Z,45.21
2018-05-14T10:19:47.363Z,45.75
2018-05-14T10:22:16.927Z,44.30
2018-05-14T10:24:44.873Z,45.53
2018-05-14T10:27:12.944Z,46.73
2018-05-14T10:29:41.070Z,47.90
2018-05-14T10:32:09.170Z,46.19
2018-05-14T10:34:36.937Z,47.28
2018-05-14T10:37:04.864Z,48.27
2018-05-14T10:39:32.621Z,47.23
2018-05-14T10:42:00.258Z,46.89
2018-05-14T10:44:27.948Z,48.01
2018-05-14T10:46:55.638Z,47.84
2018-05-14T10:49:24.300Z,47.32
2018-05-14T10:51:51.984Z,47.60
2018-05-14T10:54:19.806Z,47.80
2018-05-14T10:56:47.488Z,41.33
2018-05-14T10:59:15.460Z,45.76
2018-05-14T11:01:43.124Z,45.74
2018-05-14T11:04:10.808Z,45.51
2018-05-14T11:06:38.440Z,44.98
2018-05-14T11:09:10.179Z,45.78
2018-05-14T11:11:37.825Z,47.40
2018-05-14T11:14:05.573Z,46.80
2018-05-14T11:16:33.605Z,46.21
2018-05-14T11:19:03.127Z,46.26
2018-05-14T11:21:30.823Z,48.52
2018-05-14T11:23:59.587Z,46.88
2018-05-14T11:26:28.837Z,46.41
2018-05-14T11:28:56.831Z,47.96
2018-05-14T11:31:24.698Z,46.56
2018-05-14T11:33:53.243Z,48.34
2018-05-14T11:36:20.930Z,47.87
2018-05-14T11:38:50.235Z,47.57
2018-05-14T11:41:18.099Z,46.44
2018-05-14T11:43:45.815Z,47.80
2018-05-14T11:46:13.441Z,49.64
2018-05-14T11:48:41.065Z,50.32
2018-05-14T11:51:08.757Z,48.15
2018-05-14T11:53:36.396Z,49.58
2018-05-14T11:56:04.102Z,50.96
2018-05-14T11:58:31.767Z,49.78
2018-05-14T12:00:59.520Z,50.74
2018-05-14T12:03:27.255Z,50.99
2018-05-14T12:05:55.130Z,51.03
2018-05-14T12:08:23.064Z,51.04
2018-05-14T12:10:50.830Z,52.50
2018-05-14T12:13:18.868Z,50.54
2018-05-14T12:15:46.811Z,51.03
2018-05-14T12:18:15.575Z,51.74
2018-05-14T12:20:43.257Z,51.75
2018-05-14T12:23:11.399Z,52.63
2018-05-14T12:25:39.680Z,52.25
2018-05-14T12:28:07.652Z,49.87
2018-05-14T12:30:36.144Z,50.31
2018-05-14T12:33:03.805Z,50.76
2018-05-14T12:35:31.647Z,51.80
2018-05-14T12:38:00.268Z,52.76
2018-05-14T12:40:28.458Z,51.35
2018-05-14T12:42:57.915Z,50.28
2018-05-14T12:45:25.566Z,50.51
2018-05-14T12:47:53.222Z,50.30
2018-05-14T12:50:20.915Z,50.24
2018-05-14T12:52:48.658Z,51.11
2018-05-14T12:55:17.145Z,51.92
2018-05-14T12:57:45.379Z,54.32
2018-05-14T13:00:13.003Z,54.33
2018-05-14T13:02:41.209Z,51.97
2018-05-14T13:05:09.337Z,55.42
2018-05-14T13:07:37.558Z,54.54
2018-05-14T13:10:06.040Z,52.82
2018-05-14T13:12:34.915Z,53.76
2018-05-14T13:15:05.655Z,54.21
2018-05-14T13:17:33.369Z,55.90
2018-05-14T13:20:01.422Z,56.28
2018-05-14T13:22:29.765Z,54.80
2018-05-14T13:24:57.728Z,57.08
2018-05-14T13:27:25.618Z,56.90
2018-05-14T13:29:53.281Z,57.63
2018-05-14T13:32:20.995Z,56.87
2018-05-14T13:34:49.012Z,57.74
2018-05-14T13:37:16.879Z,57.08
2018-05-14T13:39:44.560Z,55.52
2018-05-14T13:42:12.238Z,56.40
2018-05-14T13:44:40.033Z,57.85
2018-05-14T13:47:07.624Z,58.85
2018-05-14T13:49:35.556Z,59.45
2018-05-14T13:52:03.269Z,59.65
2018-05-14T13:54:31.335Z,59.31
2018-05-14T13:56:59.508Z,59.52
2018-05-14T13:59:28.301Z,59.02
2018-05-14T14:01:56.343Z,60.82
2018-05-14T14:04:24.141Z,59.75
2018-05-14T14:06:51.918Z,60.56
2018-05-14T14:09:19.649Z,59.97
2018-05-14T14:11:47.380Z,61.03
2018-05-14T14:14:15.016Z,60.64
2018-05-14T14:16:42.731Z,60.42
2018-05-14T14:19:10.358Z,61.88
2018-05-14T14:21:38.077Z,61.66
2018-05-14T14:24:06.300Z,61.96
2018-05-14T14:26:34.217Z,61.62
2018-05-14T14:29:02.858Z,62.12
2018-05-14T14:31:31.071Z,63.71
2018-05-14T14:33:59.387Z,63.12
2018-05-14T14:36:27.940Z,63.23
2018-05-14T14:38:55.918Z,63.20
2018-05-14T14:41:23.970Z,62.05
2018-05-14T14:43:53.532Z,62.25
2018-05-14T14:46:22.418Z,62.50
2018-05-14T14:48:50.243Z,61.83
2018-05-14T14:51:18.190Z,63.07
2018-05-14T14:53:45.986Z,60.12
2018-05-14T14:56:15.116Z,61.00
2018-05-14T14:58:43.767Z,61.98
2018-05-14T15:01:11.464Z,63.08
2018-05-14T15:03:39.298Z,62.12
2018-05-14T15:06:07.108Z,62.55
2018-05-14T15:08:35.342Z,62.69
2018-05-14T15:11:03.421Z,62.96
2018-05-14T15:13:31.329Z,63.15
2018-05-14T15:15:59.260Z,62.51
2018-05-14T15:18:27.315Z,62.68
2018-05-14T15:20:55.351Z,62.40
2018-05-14T15:23:23.126Z,61.88
2018-05-14T15:25:52.352Z,62.29
2018-05-14T15:28:20.075Z,62.24
2018-05-14T15:30:47.886Z,62.36
2018-05-14T15:33:16.030Z,62.09
2018-05-14T15:35:43.673Z,62.21
2018-05-14T15:38:11.691Z,61.97
2018-05-14T15:40:39.365Z,62.04
2018-05-14T15:43:07.612Z,62.79
2018-05-14T15:45:37.669Z,62.73
2018-05-14T15:48:05.446Z,63.10
2018-05-14T15:50:33.365Z,63.20
2018-05-14T15:53:01.004Z,63.25
2018-05-14T15:55:28.777Z,63.54
2018-05-14T15:57:56.574Z,62.76
2018-05-14T16:00:24.225Z,62.61
2018-05-14T16:02:52.168Z,63.14
2018-05-14T16:05:19.822Z,62.27
2018-05-14T16:07:47.534Z,63.18
2018-05-14T16:10:17.056Z,64.44
2018-05-14T16:12:45.265Z,63.95
2018-05-14T16:15:12.974Z,63.70
2018-05-14T16:17:40.953Z,64.21
2018-05-14T16:20:09.017Z,64.57
2018-05-14T16:25:04.251Z,64.98
2018-05-14T16:27:32.352Z,65.90
2018-05-14T16:30:00.264Z,68.23
2018-05-14T16:32:29.644Z,68.97
2018-05-14T16:34:57.736Z,69.28
2018-05-14T16:37:25.934Z,70.63
2018-05-14T16:39:53.761Z,69.69
2018-05-14T16:42:21.566Z,70.60
2018-05-14T16:44:50.416Z,71.46
2018-05-14T16:47:20.180Z,71.70
2018-05-14T16:49:48.516Z,72.32
2018-05-14T16:52:16.401Z,71.60
2018-05-14T16:54:44.414Z,72.13
2018-05-14T16:57:12.241Z,72.36
2018-05-14T16:59:40.726Z,73.56
2018-05-14T17:02:08.739Z,76.04
2018-05-14T17:04:36.873Z,76.13
2018-05-14T17:07:05.763Z,74.66
2018-05-14T17:09:33.793Z,75.42
2018-05-14T17:12:02.120Z,76.01
2018-05-14T17:14:30.982Z,77.15
2018-05-14T17:16:59.077Z,76.96
2018-05-14T17:19:27.767Z,76.41
2018-05-14T17:21:56.411Z,75.46
2018-05-14T17:24:24.564Z,77.01
2018-05-14T17:26:52.570Z,76.25
2018-05-14T17:29:20.362Z,75.51
2018-05-14T17:31:49.861Z,74.29
2018-05-14T17:34:18.939Z,73.51
2018-05-14T17:36:47.890Z,73.06
2018-05-14T17:39:17.717Z,73.77
2018-05-14T17:41:46.376Z,73.70
2018-05-14T17:44:14.857Z,74.96
2018-05-14T17:46:42.947Z,75.94
2018-05-14T17:49:13.232Z,76.96
2018-05-14T17:51:41.535Z,78.04
2018-05-14T17:54:10.163Z,75.95
2018-05-14T17:56:42.165Z,73.68
2018-05-14T17:59:18.086Z,66.96
2018-05-14T18:01:53.036Z,67.34
2018-05-14T18:04:25.811Z,66.91
2018-05-14T18:06:56.904Z,65.87
2018-05-14T18:09:27.106Z,66.65
2018-05-14T18:11:57.404Z,65.59
2018-05-14T18:14:27.589Z,66.35
2018-05-14T18:16:57.171Z,65.72
2018-05-14T18:19:26.590Z,65.71
2018-05-14T18:22:01.573Z,66.12
2018-05-14T18:24:29.716Z,66.55
2018-05-14T18:26:58.551Z,67.47
2018-05-14T18:29:32.158Z,67.79
2018-05-14T18:32:05.275Z,67.59
2018-05-14T18:34:40.387Z,67.18
2018-05-14T18:37:08.807Z,66.13
2018-05-14T18:39:38.631Z,66.62
2018-05-14T18:42:09.026Z,68.60
2018-05-14T18:44:38.797Z,70.34
2018-05-14T18:47:08.848Z,70.13
2018-05-14T18:49:37.797Z,68.66
2018-05-14T18:52:05.844Z,67.59
2018-05-14T18:54:33.729Z,68.51
2018-05-14T18:57:01.982Z,68.13
2018-05-14T18:59:30.807Z,68.48
2018-05-14T19:02:00.010Z,68.08
2018-05-14T19:04:30.913Z,67.86
2018-05-14T19:06:59.435Z,67.99
2018-05-14T19:09:28.900Z,68.49
2018-05-14T19:11:57.298Z,70.37
2018-05-14T19:14:25.648Z,72.28
2018-05-14T19:16:59.555Z,72.99
2018-05-14T19:19:27.802Z,74.02
2018-05-14T19:21:55.858Z,76.22
2018-05-14T19:24:24.132Z,76.62
2018-05-14T19:26:52.210Z,74.59
2018-05-14T19:29:26.513Z,72.82
2018-05-14T19:31:54.383Z,71.62
2018-05-14T19:34:28.303Z,70.64
2018-05-14T19:36:56.374Z,71.30
2018-05-14T19:39:31.136Z,71.15
2018-05-14T19:41:58.868Z,70.40
2018-05-14T19:44:26.943Z,72.64
2018-05-14T19:46:54.985Z,71.86
2018-05-14T19:49:23.392Z,71.93
2018-05-14T19:51:51.230Z,71.25
2018-05-14T19:54:19.235Z,70.80
2018-05-14T19:56:47.486Z,71.54
2018-05-14T19:59:16.253Z,72.12
2018-05-14T20:01:45.294Z,75.48
2018-05-14T20:04:13.330Z,76.06
2018-05-14T20:06:41.110Z,76.16
2018-05-14T20:09:09.269Z,76.12
2018-05-14T20:11:37.163Z,76.97
2018-05-14T20:14:05.248Z,77.14
2018-05-14T20:16:32.915Z,77.64
2018-05-14T20:19:00.646Z,76.89
2018-05-14T20:21:28.835Z,78.06
2018-05-14T20:23:56.935Z,78.17
2018-05-14T20:26:25.966Z,77.39
2018-05-14T20:28:53.778Z,77.38
2018-05-14T20:31:21.572Z,77.74
2018-05-14T20:33:49.502Z,77.34
2018-05-14T20:36:17.244Z,77.71
2018-05-14T20:38:45.569Z,77.11
2018-05-14T20:41:13.327Z,77.58
2018-05-14T20:43:41.207Z,78.09
2018-05-14T20:46:09.252Z,77.60
2018-05-14T20:48:36.968Z,77.62
2018-05-14T20:51:05.365Z,77.41
2018-05-14T20:53:33.241Z,76.94
2018-05-14T20:56:01.021Z,76.62
2018-05-14T20:58:28.778Z,76.30
2018-05-14T21:00:56.393Z,76.12
2018-05-14T21:03:24.112Z,75.67
2018-05-14T21:05:51.770Z,76.04
2018-05-14T21:08:19.509Z,76.64
2018-05-14T21:10:47.301Z,77.10
2018-05-14T21:13:15.144Z,76.87
2018-05-14T21:15:43.428Z,76.79
2018-05-14T21:18:11.086Z,76.69
2018-05-14T21:20:38.781Z,76.27
2018-05-14T21:23:06.535Z,76.47
2018-05-14T21:25:34.406Z,76.52
2018-05-14T21:28:02.169Z,77.07
2018-05-14T21:30:30.444Z,77.97
2018-05-14T21:32:58.191Z,77.69
2018-05-14T21:35:25.880Z,78.67
2018-05-14T21:37:53.506Z,79.87
2018-05-14T21:40:21.199Z,80.61
2018-05-14T21:42:48.955Z,80.41
2018-05-14T21:45:16.611Z,80.65
2018-05-14T21:47:44.235Z,80.73
2018-05-14T21:50:12.148Z,80.71
2018-05-14T21:52:40.024Z,80.76
2018-05-14T21:55:08.510Z,81.33
2018-05-14T21:57:36.150Z,81.71
2018-05-14T22:00:05.572Z,81.57
2018-05-14T22:02:33.249Z,81.77
2018-05-14T22:05:00.833Z,81.28
2018-05-14T22:07:28.968Z,82.55
2018-05-14T22:09:56.629Z,81.84
2018-05-14T22:12:24.259Z,82.48
2018-05-14T22:14:52.039Z,81.93
2018-05-14T22:17:20.310Z,81.72
2018-05-14T22:19:47.977Z,82.28
2018-05-14T22:22:15.658Z,83.03
2018-05-14T22:24:43.290Z,83.22
2018-05-14T22:27:11.775Z,83.79
2018-05-14T22:29:39.554Z,84.17
2018-05-14T22:32:07.195Z,83.17
2018-05-14T22:34:35.055Z,82.88
2018-05-14T22:37:02.747Z,83.31
2018-05-14T22:39:30.421Z,84.07
2018-05-14T22:41:58.076Z,83.77
2018-05-14T22:44:26.168Z,83.99
2018-05-14T22:46:53.916Z,83.34
2018-05-14T22:49:22.405Z,83.54
2018-05-14T22:51:50.083Z,85.00
2018-05-14T22:54:29.662Z,84.58
2018-05-14T22:56:57.365Z,84.65
2018-05-14T22:59:25.058Z,85.02
2018-05-14T23:01:53.520Z,85.06
2018-05-14T23:04:21.184Z,84.57
2018-05-14T23:06:50.028Z,84.86
2018-05-14T23:09:17.724Z,85.60
2018-05-14T23:11:46.007Z,85.56
2018-05-14T23:14:16.132Z,85.82
2018-05-14T23:16:43.978Z,86.31
2018-05-14T23:19:12.067Z,85.85
2018-05-14T23:21:40.017Z,86.16
2018-05-14T23:24:08.591Z,86.26
2018-05-14T23:26:36.499Z,85.92
2018-05-14T23:29:04.768Z,86.03
2018-05-14T23:31:32.424Z,85.94
2018-05-14T23:34:00.747Z,86.47
2018-05-14T23:36:29.713Z,85.64
2018-05-14T23:38:57.940Z,86.22
2018-05-14T23:41:25.713Z,86.33
2018-05-14T23:43:53.355Z,87.51
2018-05-14T23:46:21.517Z,87.41
2018-05-14T23:48:49.163Z,87.53
2018-05-14T23:51:16.818Z,86.93
2018-05-14T23:53:45.125Z,86.56
2018-05-14T23:56:12.925Z,86.56
2018-05-14T23:58:40.526Z,86.65
